N8285B -KEEN
Flight info
| Callsign | N8285B |
|---|---|
| Flight time | N/A |
| Altitude | VFR/045 |
| Route | PUT GDM |
| Aircraft | PA24/L-DOV/C |
Departure
| Time | N/A |
|---|---|
| Airport | - |
Arrival
| Time | 2026-04-25 00:12 |
|---|---|
| Airport | Dillant Hopkins Airport (KEEN) |
| Time | Latitude | Longitude | Altitude | Speed | Heading |
|---|---|---|---|---|---|
| 2026-04-25 00:12 | 42.89479 | -72.26867 | 473 ft | 0 kts | 274° |
| 2026-04-25 00:12 | 42.89479 | -72.26868 | 473 ft | 1 kts | 274° |
| 2026-04-25 00:12 | 42.89500 | -72.26883 | 472 ft | 1 kts | 7° |
| 2026-04-25 00:13 | 42.89517 | -72.26864 | 472 ft | 6 kts | 76° |
| 2026-04-25 00:13 | 42.89537 | -72.26838 | 472 ft | 7 kts | 10° |
| 2026-04-25 00:13 | 42.89619 | -72.26831 | 472 ft | 10 kts | 2° |
| 2026-04-25 00:13 | 42.89671 | -72.26828 | 472 ft | 11 kts | 3° |
| 2026-04-25 00:14 | 42.89767 | -72.26820 | 472 ft | 10 kts | 4° |
| 2026-04-25 00:14 | 42.89813 | -72.26816 | 472 ft | 10 kts | 3° |
| 2026-04-25 00:14 | 42.89894 | -72.26808 | 472 ft | 7 kts | 2° |
| 2026-04-25 00:14 | 42.89940 | -72.26805 | 472 ft | 6 kts | 2° |
| 2026-04-25 00:15 | 42.89994 | -72.26801 | 472 ft | 11 kts | 1° |
| 2026-04-25 00:15 | 42.90058 | -72.26824 | 471 ft | 11 kts | 333° |
| 2026-04-25 00:15 | 42.90133 | -72.26831 | 471 ft | 11 kts | 4° |
| 2026-04-25 00:15 | 42.90210 | -72.26825 | 470 ft | 11 kts | 3° |
| 2026-04-25 00:16 | 42.90281 | -72.26818 | 470 ft | 10 kts | 4° |
| 2026-04-25 00:16 | 42.90347 | -72.26812 | 469 ft | 8 kts | 0° |
| 2026-04-25 00:16 | 42.90387 | -72.26834 | 469 ft | 8 kts | 313° |
| 2026-04-25 00:16 | 42.90392 | -72.26843 | 469 ft | 2 kts | 311° |
| 2026-04-25 00:17 | 42.90423 | -72.26931 | 470 ft | 14 kts | 252° |
| 2026-04-25 00:17 | 42.90273 | -72.26967 | 469 ft | 48 kts | 184° |
| 2026-04-25 00:17 | 42.89803 | -72.26998 | 515 ft | 77 kts | 183° |
| 2026-04-25 00:17 | 42.89226 | -72.27028 | 691 ft | 84 kts | 185° |
| 2026-04-25 00:18 | 42.88649 | -72.27081 | 954 ft | 84 kts | 186° |
| 2026-04-25 00:18 | 42.88079 | -72.27101 | 1234 ft | 84 kts | 182° |
| 2026-04-25 00:18 | 42.87470 | -72.27057 | 1488 ft | 91 kts | 180° |
| 2026-04-25 00:18 | 42.86851 | -72.26975 | 1758 ft | 88 kts | 176° |
| 2026-04-25 00:19 | 42.86240 | -72.26840 | 1966 ft | 90 kts | 172° |
| 2026-04-25 00:19 | 42.85635 | -72.26592 | 2177 ft | 92 kts | 160° |
| 2026-04-25 00:19 | 42.85061 | -72.26168 | 2381 ft | 95 kts | 152° |
| 2026-04-25 00:19 | 42.84507 | -72.25670 | 2611 ft | 96 kts | 148° |
| 2026-04-25 00:20 | 42.83971 | -72.25135 | 2824 ft | 95 kts | 146° |
| 2026-04-25 00:20 | 42.83440 | -72.24588 | 3029 ft | 96 kts | 146° |
| 2026-04-25 00:20 | 42.82928 | -72.24012 | 3215 ft | 96 kts | 141° |
| 2026-04-25 00:20 | 42.82431 | -72.23399 | 3411 ft | 96 kts | 140° |
| 2026-04-25 00:21 | 42.81955 | -72.22750 | 3598 ft | 97 kts | 136° |
| 2026-04-25 00:21 | 42.81500 | -72.22093 | 3784 ft | 97 kts | 136° |
| 2026-04-25 00:21 | 42.81025 | -72.21425 | 3936 ft | 99 kts | 137° |
| 2026-04-25 00:21 | 42.80526 | -72.20769 | 4097 ft | 100 kts | 139° |
| 2026-04-25 00:22 | 42.80043 | -72.20085 | 4263 ft | 100 kts | 136° |
| 2026-04-25 00:22 | 42.79561 | -72.19396 | 4414 ft | 100 kts | 136° |
| 2026-04-25 00:22 | 42.79082 | -72.18719 | 4582 ft | 99 kts | 136° |
| 2026-04-25 00:22 | 42.78595 | -72.18063 | 4744 ft | 98 kts | 142° |
| 2026-04-25 00:23 | 42.78065 | -72.17496 | 4916 ft | 95 kts | 146° |